Terminal Aerodrome Forecast
Issued by NWS Twin Cities, MN

Home | Current Version | Previous Version | Graphics & Text | Print | Product List | Glossary On
Versions: 1 2 3 4 5 6 7 8 9 10 11 12 13 14 15
000
FTUS43 KMPX 030520
TAFEAU
TAF
KEAU 030520Z 0306/0406 17007KT P6SM -SN OVC090
     FM031200 14008KT 1 1/2SM -SN OVC015
      TEMPO 0314/0316 1SM -SN VV007
     FM031800 29017G22KT 1SM -SN BKN007 OVC015
     FM032000 31020G25KT 4SM -SN FEW007 OVC020
     FM040100 29016G21KT P6SM FEW025 SCT050=

USA.gov is the U.S. government's official web portal to all federal, state and local government web resources and services.